sensor_id;sensor_type;location;lat;lon;timestamp;temperature;humidity
65582;DHT22;52231;40.090;18.348;2023-05-20T00:02:32;16.90;84.10
65582;DHT22;52231;40.090;18.348;2023-05-20T00:05:00;17.00;84.10
65582;DHT22;52231;40.090;18.348;2023-05-20T00:07:29;17.00;84.10
65582;DHT22;52231;40.090;18.348;2023-05-20T00:10:02;17.00;84.20
65582;DHT22;52231;40.090;18.348;2023-05-20T00:12:30;17.00;84.20
65582;DHT22;52231;40.090;18.348;2023-05-20T00:14:58;17.00;84.10
65582;DHT22;52231;40.090;18.348;2023-05-20T00:17:26;17.00;84.20
65582;DHT22;52231;40.090;18.348;2023-05-20T00:19:55;17.00;84.30
65582;DHT22;52231;40.090;18.348;2023-05-20T00:22:23;17.00;84.30
65582;DHT22;52231;40.090;18.348;2023-05-20T00:24:51;17.00;84.40
65582;DHT22;52231;40.090;18.348;2023-05-20T00:27:21;17.00;84.50
65582;DHT22;52231;40.090;18.348;2023-05-20T00:29:54;17.00;84.50
65582;DHT22;52231;40.090;18.348;2023-05-20T00:32:23;17.00;84.50
65582;DHT22;52231;40.090;18.348;2023-05-20T00:34:59;17.00;84.60
65582;DHT22;52231;40.090;18.348;2023-05-20T00:37:27;17.00;84.60
65582;DHT22;52231;40.090;18.348;2023-05-20T00:39:55;17.00;84.70
65582;DHT22;52231;40.090;18.348;2023-05-20T00:42:25;17.00;84.80
65582;DHT22;52231;40.090;18.348;2023-05-20T00:44:54;17.00;84.90
65582;DHT22;52231;40.090;18.348;2023-05-20T00:47:27;17.10;84.90
65582;DHT22;52231;40.090;18.348;2023-05-20T00:49:56;17.10;84.90
65582;DHT22;52231;40.090;18.348;2023-05-20T00:52:27;17.10;84.90
65582;DHT22;52231;40.090;18.348;2023-05-20T00:54:57;17.20;84.70
65582;DHT22;52231;40.090;18.348;2023-05-20T00:57:27;17.10;84.50
65582;DHT22;52231;40.090;18.348;2023-05-20T00:59:55;17.10;84.40
65582;DHT22;52231;40.090;18.348;2023-05-20T01:02:24;17.10;84.20
65582;DHT22;52231;40.090;18.348;2023-05-20T01:04:53;17.10;84.10
65582;DHT22;52231;40.090;18.348;2023-05-20T01:07:23;17.10;84.10
65582;DHT22;52231;40.090;18.348;2023-05-20T01:09:52;17.00;84.10
65582;DHT22;52231;40.090;18.348;2023-05-20T01:12:26;17.00;84.10
65582;DHT22;52231;40.090;18.348;2023-05-20T01:15:02;17.00;84.10
65582;DHT22;52231;40.090;18.348;2023-05-20T01:17:35;16.90;84.20
65582;DHT22;52231;40.090;18.348;2023-05-20T01:20:07;16.90;84.20
65582;DHT22;52231;40.090;18.348;2023-05-20T01:22:52;16.90;84.30
65582;DHT22;52231;40.090;18.348;2023-05-20T01:25:21;16.90;84.50
65582;DHT22;52231;40.090;18.348;2023-05-20T01:27:49;16.80;84.50
65582;DHT22;52231;40.090;18.348;2023-05-20T01:30:19;16.80;84.50
65582;DHT22;52231;40.090;18.348;2023-05-20T01:32:56;16.80;84.60
65582;DHT22;52231;40.090;18.348;2023-05-20T01:35:25;16.80;84.60
65582;DHT22;52231;40.090;18.348;2023-05-20T01:37:57;16.80;84.70
65582;DHT22;52231;40.090;18.348;2023-05-20T01:40:26;16.80;84.80
65582;DHT22;52231;40.090;18.348;2023-05-20T01:42:55;16.80;84.90
65582;DHT22;52231;40.090;18.348;2023-05-20T01:45:25;16.80;85.00
65582;DHT22;52231;40.090;18.348;2023-05-20T01:47:53;16.80;85.10
65582;DHT22;52231;40.090;18.348;2023-05-20T01:50:21;16.90;85.10
65582;DHT22;52231;40.090;18.348;2023-05-20T01:52:49;16.90;85.10
65582;DHT22;52231;40.090;18.348;2023-05-20T01:55:19;16.80;85.00
65582;DHT22;52231;40.090;18.348;2023-05-20T01:57:47;16.80;84.90
65582;DHT22;52231;40.090;18.348;2023-05-20T02:00:15;16.80;85.00
65582;DHT22;52231;40.090;18.348;2023-05-20T02:02:44;16.70;85.00
65582;DHT22;52231;40.090;18.348;2023-05-20T02:05:13;16.70;85.00
65582;DHT22;52231;40.090;18.348;2023-05-20T02:07:43;16.70;85.10
65582;DHT22;52231;40.090;18.348;2023-05-20T02:10:11;16.60;85.10
65582;DHT22;52231;40.090;18.348;2023-05-20T02:12:39;16.60;85.20
65582;DHT22;52231;40.090;18.348;2023-05-20T02:15:07;16.60;85.20
65582;DHT22;52231;40.090;18.348;2023-05-20T02:17:35;16.60;85.20
65582;DHT22;52231;40.090;18.348;2023-05-20T02:20:04;16.60;85.30
65582;DHT22;52231;40.090;18.348;2023-05-20T02:22:34;16.60;85.30
65582;DHT22;52231;40.090;18.348;2023-05-20T02:25:03;16.60;85.30
65582;DHT22;52231;40.090;18.348;2023-05-20T02:27:32;16.50;85.20
65582;DHT22;52231;40.090;18.348;2023-05-20T02:30:00;16.50;85.10
65582;DHT22;52231;40.090;18.348;2023-05-20T02:32:28;16.40;85.10
65582;DHT22;52231;40.090;18.348;2023-05-20T02:34:57;16.30;85.20
65582;DHT22;52231;40.090;18.348;2023-05-20T02:37:25;16.30;85.30
65582;DHT22;52231;40.090;18.348;2023-05-20T02:39:53;16.30;85.30
65582;DHT22;52231;40.090;18.348;2023-05-20T02:42:23;16.30;85.30
65582;DHT22;52231;40.090;18.348;2023-05-20T02:44:51;16.20;85.30
65582;DHT22;52231;40.090;18.348;2023-05-20T02:47:24;16.20;85.40
65582;DHT22;52231;40.090;18.348;2023-05-20T02:49:52;16.20;85.40
65582;DHT22;52231;40.090;18.348;2023-05-20T02:52:21;16.20;85.50
65582;DHT22;52231;40.090;18.348;2023-05-20T02:54:49;16.20;85.50
65582;DHT22;52231;40.090;18.348;2023-05-20T02:57:18;16.10;85.50
65582;DHT22;52231;40.090;18.348;2023-05-20T02:59:46;16.10;85.50
65582;DHT22;52231;40.090;18.348;2023-05-20T03:02:14;16.00;85.60
65582;DHT22;52231;40.090;18.348;2023-05-20T03:04:42;16.10;85.70
65582;DHT22;52231;40.090;18.348;2023-05-20T03:07:13;16.10;85.70
65582;DHT22;52231;40.090;18.348;2023-05-20T03:09:44;16.10;85.80
65582;DHT22;52231;40.090;18.348;2023-05-20T03:12:12;16.10;85.70
65582;DHT22;52231;40.090;18.348;2023-05-20T03:14:40;16.10;85.60
65582;DHT22;52231;40.090;18.348;2023-05-20T03:17:09;16.10;85.50
65582;DHT22;52231;40.090;18.348;2023-05-20T03:19:38;16.20;85.50
65582;DHT22;52231;40.090;18.348;2023-05-20T03:22:06;16.10;85.50
65582;DHT22;52231;40.090;18.348;2023-05-20T03:24:34;16.20;85.50
65582;DHT22;52231;40.090;18.348;2023-05-20T03:27:03;16.20;85.50
65582;DHT22;52231;40.090;18.348;2023-05-20T03:29:32;16.30;85.60
65582;DHT22;52231;40.090;18.348;2023-05-20T03:32:01;16.30;85.60
65582;DHT22;52231;40.090;18.348;2023-05-20T03:34:29;16.40;85.50
65582;DHT22;52231;40.090;18.348;2023-05-20T03:36:58;16.50;85.30
65582;DHT22;52231;40.090;18.348;2023-05-20T03:39:27;16.50;85.00
65582;DHT22;52231;40.090;18.348;2023-05-20T03:41:55;16.50;84.80
65582;DHT22;52231;40.090;18.348;2023-05-20T03:44:23;16.60;84.60
65582;DHT22;52231;40.090;18.348;2023-05-20T03:46:51;16.60;84.60
65582;DHT22;52231;40.090;18.348;2023-05-20T03:49:19;16.60;84.40
65582;DHT22;52231;40.090;18.348;2023-05-20T03:51:48;16.70;84.30
65582;DHT22;52231;40.090;18.348;2023-05-20T03:54:16;16.70;84.10
65582;DHT22;52231;40.090;18.348;2023-05-20T03:56:48;16.80;84.00
65582;DHT22;52231;40.090;18.348;2023-05-20T03:59:18;16.80;83.90
65582;DHT22;52231;40.090;18.348;2023-05-20T04:01:49;16.80;83.80
65582;DHT22;52231;40.090;18.348;2023-05-20T04:04:17;16.90;83.70
65582;DHT22;52231;40.090;18.348;2023-05-20T04:06:46;16.80;83.60
65582;DHT22;52231;40.090;18.348;2023-05-20T04:09:14;16.90;83.60
65582;DHT22;52231;40.090;18.348;2023-05-20T04:11:42;16.90;83.50
65582;DHT22;52231;40.090;18.348;2023-05-20T04:14:11;17.00;83.50
65582;DHT22;52231;40.090;18.348;2023-05-20T04:16:39;17.00;83.40
65582;DHT22;52231;40.090;18.348;2023-05-20T04:19:07;17.00;83.30
65582;DHT22;52231;40.090;18.348;2023-05-20T04:21:35;17.10;83.30
65582;DHT22;52231;40.090;18.348;2023-05-20T04:24:04;17.10;83.30
65582;DHT22;52231;40.090;18.348;2023-05-20T04:26:32;17.10;83.40
65582;DHT22;52231;40.090;18.348;2023-05-20T04:29:01;17.10;83.40
65582;DHT22;52231;40.090;18.348;2023-05-20T04:31:33;17.20;83.40
65582;DHT22;52231;40.090;18.348;2023-05-20T04:34:01;17.10;83.30
65582;DHT22;52231;40.090;18.348;2023-05-20T04:36:30;17.20;83.30
65582;DHT22;52231;40.090;18.348;2023-05-20T04:38:59;17.20;83.20
65582;DHT22;52231;40.090;18.348;2023-05-20T04:41:29;17.20;83.20
65582;DHT22;52231;40.090;18.348;2023-05-20T04:43:57;17.30;83.30
65582;DHT22;52231;40.090;18.348;2023-05-20T04:46:29;17.30;83.50
65582;DHT22;52231;40.090;18.348;2023-05-20T04:48:58;17.30;83.50
65582;DHT22;52231;40.090;18.348;2023-05-20T04:51:26;17.40;83.50
65582;DHT22;52231;40.090;18.348;2023-05-20T04:53:56;17.50;83.40
65582;DHT22;52231;40.090;18.348;2023-05-20T04:56:28;17.50;83.30
65582;DHT22;52231;40.090;18.348;2023-05-20T04:58:56;17.60;83.20
65582;DHT22;52231;40.090;18.348;2023-05-20T05:01:25;17.60;83.10
65582;DHT22;52231;40.090;18.348;2023-05-20T05:03:54;17.50;83.00
65582;DHT22;52231;40.090;18.348;2023-05-20T05:06:22;17.50;83.20
65582;DHT22;52231;40.090;18.348;2023-05-20T05:08:51;17.50;83.30
65582;DHT22;52231;40.090;18.348;2023-05-20T05:11:19;17.60;83.40
65582;DHT22;52231;40.090;18.348;2023-05-20T05:13:48;17.60;83.50
65582;DHT22;52231;40.090;18.348;2023-05-20T05:16:18;17.70;83.60
65582;DHT22;52231;40.090;18.348;2023-05-20T05:18:46;17.80;83.50
65582;DHT22;52231;40.090;18.348;2023-05-20T05:21:15;17.90;83.40
65582;DHT22;52231;40.090;18.348;2023-05-20T05:23:45;18.00;83.40
65582;DHT22;52231;40.090;18.348;2023-05-20T05:26:13;18.20;83.20
65582;DHT22;52231;40.090;18.348;2023-05-20T05:28:48;18.30;82.90
65582;DHT22;52231;40.090;18.348;2023-05-20T05:31:17;18.50;82.50
65582;DHT22;52231;40.090;18.348;2023-05-20T05:33:45;18.80;82.10
65582;DHT22;52231;40.090;18.348;2023-05-20T05:36:15;18.90;81.40
65582;DHT22;52231;40.090;18.348;2023-05-20T05:38:44;19.20;80.70
65582;DHT22;52231;40.090;18.348;2023-05-20T05:41:12;19.30;80.20
65582;DHT22;52231;40.090;18.348;2023-05-20T05:43:41;19.60;79.40
65582;DHT22;52231;40.090;18.348;2023-05-20T05:46:09;20.00;78.90
65582;DHT22;52231;40.090;18.348;2023-05-20T05:48:37;20.30;77.40
65582;DHT22;52231;40.090;18.348;2023-05-20T05:51:05;20.70;76.70
65582;DHT22;52231;40.090;18.348;2023-05-20T05:53:35;21.00;75.80
65582;DHT22;52231;40.090;18.348;2023-05-20T05:56:04;21.30;74.70
65582;DHT22;52231;40.090;18.348;2023-05-20T05:58:32;21.50;73.40
65582;DHT22;52231;40.090;18.348;2023-05-20T06:01:02;21.70;73.30
65582;DHT22;52231;40.090;18.348;2023-05-20T06:03:31;21.60;72.30
65582;DHT22;52231;40.090;18.348;2023-05-20T06:05:59;21.50;72.60
65582;DHT22;52231;40.090;18.348;2023-05-20T06:08:27;21.30;73.20
65582;DHT22;52231;40.090;18.348;2023-05-20T06:10:56;21.10;73.90
65582;DHT22;52231;40.090;18.348;2023-05-20T06:13:24;21.00;74.60
65582;DHT22;52231;40.090;18.348;2023-05-20T06:15:52;20.80;74.90
65582;DHT22;52231;40.090;18.348;2023-05-20T06:18:20;20.80;75.40
65582;DHT22;52231;40.090;18.348;2023-05-20T06:20:56;20.80;75.40
65582;DHT22;52231;40.090;18.348;2023-05-20T06:23:25;20.80;76.00
65582;DHT22;52231;40.090;18.348;2023-05-20T06:26:04;21.10;75.60
65582;DHT22;52231;40.090;18.348;2023-05-20T06:28:33;21.20;75.00
65582;DHT22;52231;40.090;18.348;2023-05-20T06:31:05;21.40;75.00
65582;DHT22;52231;40.090;18.348;2023-05-20T06:33:34;21.80;74.00
65582;DHT22;52231;40.090;18.348;2023-05-20T06:36:09;22.30;72.20
65582;DHT22;52231;40.090;18.348;2023-05-20T06:38:38;22.80;70.70
65582;DHT22;52231;40.090;18.348;2023-05-20T06:41:07;23.10;69.10
65582;DHT22;52231;40.090;18.348;2023-05-20T06:43:35;23.10;68.80
65582;DHT22;52231;40.090;18.348;2023-05-20T06:46:05;23.30;68.20
65582;DHT22;52231;40.090;18.348;2023-05-20T06:48:37;23.60;67.60
65582;DHT22;52231;40.090;18.348;2023-05-20T06:51:07;23.80;65.80
65582;DHT22;52231;40.090;18.348;2023-05-20T06:53:39;24.00;64.90
65582;DHT22;52231;40.090;18.348;2023-05-20T06:56:08;24.10;64.20
65582;DHT22;52231;40.090;18.348;2023-05-20T06:58:36;24.30;63.50
65582;DHT22;52231;40.090;18.348;2023-05-20T07:01:04;24.60;63.70
65582;DHT22;52231;40.090;18.348;2023-05-20T07:03:33;25.00;62.10
65582;DHT22;52231;40.090;18.348;2023-05-20T07:06:01;25.40;61.30
65582;DHT22;52231;40.090;18.348;2023-05-20T07:08:29;25.90;59.70
65582;DHT22;52231;40.090;18.348;2023-05-20T07:10:58;26.20;58.80
65582;DHT22;52231;40.090;18.348;2023-05-20T07:13:26;26.60;57.00
65582;DHT22;52231;40.090;18.348;2023-05-20T07:15:54;26.80;56.00
65582;DHT22;52231;40.090;18.348;2023-05-20T07:18:23;27.10;55.50
65582;DHT22;52231;40.090;18.348;2023-05-20T07:20:53;27.10;54.80
65582;DHT22;52231;40.090;18.348;2023-05-20T07:23:36;27.30;54.00
65582;DHT22;52231;40.090;18.348;2023-05-20T07:26:05;27.60;52.90
65582;DHT22;52231;40.090;18.348;2023-05-20T07:28:33;27.50;52.90
65582;DHT22;52231;40.090;18.348;2023-05-20T07:31:03;27.50;53.50
65582;DHT22;52231;40.090;18.348;2023-05-20T07:33:34;27.40;53.20
65582;DHT22;52231;40.090;18.348;2023-05-20T07:36:03;27.30;52.30
65582;DHT22;52231;40.090;18.348;2023-05-20T07:38:32;27.10;52.30
65582;DHT22;52231;40.090;18.348;2023-05-20T07:41:04;26.90;51.70
65582;DHT22;52231;40.090;18.348;2023-05-20T07:43:34;26.60;53.00
65582;DHT22;52231;40.090;18.348;2023-05-20T07:46:03;26.60;51.70
65582;DHT22;52231;40.090;18.348;2023-05-20T07:48:31;26.60;50.60
65582;DHT22;52231;40.090;18.348;2023-05-20T07:50:59;26.60;51.10
65582;DHT22;52231;40.090;18.348;2023-05-20T07:53:29;26.80;50.80
65582;DHT22;52231;40.090;18.348;2023-05-20T07:55:58;26.80;50.10
65582;DHT22;52231;40.090;18.348;2023-05-20T07:58:29;26.80;50.10
65582;DHT22;52231;40.090;18.348;2023-05-20T08:00:58;26.90;49.70
65582;DHT22;52231;40.090;18.348;2023-05-20T08:03:26;26.80;48.20
65582;DHT22;52231;40.090;18.348;2023-05-20T08:06:01;26.80;48.30
65582;DHT22;52231;40.090;18.348;2023-05-20T08:08:30;26.50;47.40
65582;DHT22;52231;40.090;18.348;2023-05-20T08:11:10;26.20;47.90
65582;DHT22;52231;40.090;18.348;2023-05-20T08:13:39;25.80;50.00
65582;DHT22;52231;40.090;18.348;2023-05-20T08:16:08;25.70;51.30
65582;DHT22;52231;40.090;18.348;2023-05-20T08:18:36;25.40;49.30
65582;DHT22;52231;40.090;18.348;2023-05-20T08:21:06;25.10;48.70
65582;DHT22;52231;40.090;18.348;2023-05-20T08:23:37;25.00;49.70
65582;DHT22;52231;40.090;18.348;2023-05-20T08:26:07;24.80;50.20
65582;DHT22;52231;40.090;18.348;2023-05-20T08:28:41;24.60;51.80
65582;DHT22;52231;40.090;18.348;2023-05-20T08:31:13;24.60;51.60
65582;DHT22;52231;40.090;18.348;2023-05-20T08:33:49;24.40;51.10
65582;DHT22;52231;40.090;18.348;2023-05-20T08:36:17;24.50;51.40
65582;DHT22;52231;40.090;18.348;2023-05-20T08:38:47;24.50;51.40
65582;DHT22;52231;40.090;18.348;2023-05-20T08:41:16;24.60;51.80
65582;DHT22;52231;40.090;18.348;2023-05-20T08:43:48;24.70;52.60
65582;DHT22;52231;40.090;18.348;2023-05-20T08:46:19;24.80;52.60
65582;DHT22;52231;40.090;18.348;2023-05-20T08:48:49;24.90;53.00
65582;DHT22;52231;40.090;18.348;2023-05-20T08:51:20;25.00;53.30
65582;DHT22;52231;40.090;18.348;2023-05-20T08:53:50;25.10;52.20
65582;DHT22;52231;40.090;18.348;2023-05-20T08:56:19;25.10;52.60
65582;DHT22;52231;40.090;18.348;2023-05-20T08:58:48;25.20;52.40
65582;DHT22;52231;40.090;18.348;2023-05-20T09:01:17;25.20;52.30
65582;DHT22;52231;40.090;18.348;2023-05-20T09:03:47;25.30;51.50
65582;DHT22;52231;40.090;18.348;2023-05-20T09:06:16;25.40;50.80
65582;DHT22;52231;40.090;18.348;2023-05-20T09:08:48;25.40;50.90
65582;DHT22;52231;40.090;18.348;2023-05-20T09:11:19;25.40;51.00
65582;DHT22;52231;40.090;18.348;2023-05-20T09:13:49;25.30;51.50
65582;DHT22;52231;40.090;18.348;2023-05-20T09:16:18;25.40;49.50
65582;DHT22;52231;40.090;18.348;2023-05-20T09:18:48;25.30;50.10
65582;DHT22;52231;40.090;18.348;2023-05-20T09:21:27;25.40;49.90
65582;DHT22;52231;40.090;18.348;2023-05-20T09:24:01;25.50;53.60
65582;DHT22;52231;40.090;18.348;2023-05-20T09:26:36;25.40;56.80
65582;DHT22;52231;40.090;18.348;2023-05-20T09:29:11;25.20;58.90
65582;DHT22;52231;40.090;18.348;2023-05-20T09:31:42;25.10;60.20
65582;DHT22;52231;40.090;18.348;2023-05-20T09:34:18;25.00;60.80
65582;DHT22;52231;40.090;18.348;2023-05-20T09:36:54;24.80;61.20
65582;DHT22;52231;40.090;18.348;2023-05-20T09:39:35;24.60;61.30
65582;DHT22;52231;40.090;18.348;2023-05-20T09:42:24;24.40;61.90
65582;DHT22;52231;40.090;18.348;2023-05-20T09:44:54;24.30;62.20
65582;DHT22;52231;40.090;18.348;2023-05-20T09:47:23;24.30;62.00
65582;DHT22;52231;40.090;18.348;2023-05-20T09:49:52;24.30;61.80
65582;DHT22;52231;40.090;18.348;2023-05-20T09:52:21;24.20;62.10
65582;DHT22;52231;40.090;18.348;2023-05-20T09:54:52;24.10;61.90
65582;DHT22;52231;40.090;18.348;2023-05-20T09:57:23;24.10;62.20
65582;DHT22;52231;40.090;18.348;2023-05-20T09:59:52;23.90;62.80
65582;DHT22;52231;40.090;18.348;2023-05-20T10:02:21;23.80;63.70
65582;DHT22;52231;40.090;18.348;2023-05-20T10:04:51;23.80;63.30
65582;DHT22;52231;40.090;18.348;2023-05-20T10:10:24;23.50;62.90
65582;DHT22;52231;40.090;18.348;2023-05-20T10:18:44;23.80;62.50
65582;DHT22;52231;40.090;18.348;2023-05-20T10:21:16;23.90;61.50
65582;DHT22;52231;40.090;18.348;2023-05-20T10:23:45;24.00;61.30
65582;DHT22;52231;40.090;18.348;2023-05-20T10:26:13;24.10;60.60
65582;DHT22;52231;40.090;18.348;2023-05-20T10:28:42;24.20;59.10
65582;DHT22;52231;40.090;18.348;2023-05-20T10:31:21;24.30;58.30
65582;DHT22;52231;40.090;18.348;2023-05-20T10:33:55;24.50;57.10
65582;DHT22;52231;40.090;18.348;2023-05-20T10:36:29;24.60;56.50
65582;DHT22;52231;40.090;18.348;2023-05-20T10:39:03;24.60;54.50
65582;DHT22;52231;40.090;18.348;2023-05-20T10:41:34;24.60;55.10
65582;DHT22;52231;40.090;18.348;2023-05-20T10:44:05;24.70;54.30
65582;DHT22;52231;40.090;18.348;2023-05-20T10:46:34;24.80;53.60
65582;DHT22;52231;40.090;18.348;2023-05-20T10:49:18;24.80;53.70
65582;DHT22;52231;40.090;18.348;2023-05-20T10:51:50;24.70;53.50
65582;DHT22;52231;40.090;18.348;2023-05-20T10:54:19;24.60;53.80
65582;DHT22;52231;40.090;18.348;2023-05-20T10:56:51;24.60;54.20
65582;DHT22;52231;40.090;18.348;2023-05-20T10:59:21;24.70;54.30
65582;DHT22;52231;40.090;18.348;2023-05-20T11:01:50;24.90;53.70
65582;DHT22;52231;40.090;18.348;2023-05-20T11:04:19;25.40;52.90
65582;DHT22;52231;40.090;18.348;2023-05-20T11:06:51;25.80;51.30
65582;DHT22;52231;40.090;18.348;2023-05-20T11:09:24;26.30;49.60
65582;DHT22;52231;40.090;18.348;2023-05-20T11:11:53;26.80;47.60
65582;DHT22;52231;40.090;18.348;2023-05-20T11:14:22;27.30;45.40
65582;DHT22;52231;40.090;18.348;2023-05-20T11:16:51;27.60;44.30
65582;DHT22;52231;40.090;18.348;2023-05-20T11:19:21;28.00;43.20
65582;DHT22;52231;40.090;18.348;2023-05-20T11:21:49;28.10;42.20
65582;DHT22;52231;40.090;18.348;2023-05-20T11:24:25;28.30;42.40
65582;DHT22;52231;40.090;18.348;2023-05-20T11:26:59;28.50;41.20
65582;DHT22;52231;40.090;18.348;2023-05-20T11:29:29;28.80;41.00
65582;DHT22;52231;40.090;18.348;2023-05-20T11:31:59;29.00;40.80
65582;DHT22;52231;40.090;18.348;2023-05-20T11:34:36;29.00;41.30
65582;DHT22;52231;40.090;18.348;2023-05-20T11:37:08;29.30;41.20
65582;DHT22;52231;40.090;18.348;2023-05-20T11:39:37;29.40;39.70
65582;DHT22;52231;40.090;18.348;2023-05-20T11:42:06;29.50;38.90
65582;DHT22;52231;40.090;18.348;2023-05-20T11:44:34;29.60;37.80
65582;DHT22;52231;40.090;18.348;2023-05-20T11:47:02;29.60;37.60
65582;DHT22;52231;40.090;18.348;2023-05-20T11:49:39;29.60;37.90
65582;DHT22;52231;40.090;18.348;2023-05-20T11:52:08;29.40;37.30
65582;DHT22;52231;40.090;18.348;2023-05-20T11:54:38;29.40;38.00
65582;DHT22;52231;40.090;18.348;2023-05-20T11:57:06;29.50;38.10
65582;DHT22;52231;40.090;18.348;2023-05-20T11:59:34;29.90;38.40
65582;DHT22;52231;40.090;18.348;2023-05-20T12:02:03;30.20;36.00
65582;DHT22;52231;40.090;18.348;2023-05-20T12:04:31;30.30;36.50
65582;DHT22;52231;40.090;18.348;2023-05-20T12:07:00;30.20;35.60
65582;DHT22;52231;40.090;18.348;2023-05-20T12:09:28;29.90;37.00
65582;DHT22;52231;40.090;18.348;2023-05-20T12:11:56;29.30;37.00
65582;DHT22;52231;40.090;18.348;2023-05-20T12:14:25;29.00;37.80
65582;DHT22;52231;40.090;18.348;2023-05-20T12:16:54;29.00;37.80
65582;DHT22;52231;40.090;18.348;2023-05-20T12:19:22;28.80;37.30
65582;DHT22;52231;40.090;18.348;2023-05-20T12:21:51;28.90;37.80
65582;DHT22;52231;40.090;18.348;2023-05-20T12:24:20;28.90;37.50
65582;DHT22;52231;40.090;18.348;2023-05-20T12:26:48;29.00;38.70
65582;DHT22;52231;40.090;18.348;2023-05-20T12:29:16;28.50;37.10
65582;DHT22;52231;40.090;18.348;2023-05-20T12:31:45;28.00;37.70
65582;DHT22;52231;40.090;18.348;2023-05-20T12:34:14;27.70;38.80
65582;DHT22;52231;40.090;18.348;2023-05-20T12:36:42;27.50;39.60
65582;DHT22;52231;40.090;18.348;2023-05-20T12:39:11;27.30;40.40
65582;DHT22;52231;40.090;18.348;2023-05-20T12:41:39;27.10;41.40
65582;DHT22;52231;40.090;18.348;2023-05-20T12:44:09;26.70;39.90
65582;DHT22;52231;40.090;18.348;2023-05-20T12:46:38;26.30;40.00
65582;DHT22;52231;40.090;18.348;2023-05-20T12:49:06;26.10;39.30
65582;DHT22;52231;40.090;18.348;2023-05-20T12:51:35;25.80;39.40
65582;DHT22;52231;40.090;18.348;2023-05-20T12:54:03;25.50;37.30
65582;DHT22;52231;40.090;18.348;2023-05-20T12:56:31;25.30;38.50
65582;DHT22;52231;40.090;18.348;2023-05-20T12:59:00;25.00;38.90
65582;DHT22;52231;40.090;18.348;2023-05-20T13:01:29;24.90;38.80
65582;DHT22;52231;40.090;18.348;2023-05-20T13:03:57;25.00;39.90
65582;DHT22;52231;40.090;18.348;2023-05-20T13:06:26;25.00;39.20
65582;DHT22;52231;40.090;18.348;2023-05-20T13:08:55;25.00;39.70
65582;DHT22;52231;40.090;18.348;2023-05-20T13:11:24;25.00;40.40
65582;DHT22;52231;40.090;18.348;2023-05-20T13:13:54;25.30;40.10
65582;DHT22;52231;40.090;18.348;2023-05-20T13:16:25;25.60;40.40
65582;DHT22;52231;40.090;18.348;2023-05-20T13:18:55;25.60;39.50
65582;DHT22;52231;40.090;18.348;2023-05-20T13:21:23;25.50;39.00
65582;DHT22;52231;40.090;18.348;2023-05-20T13:23:52;25.30;39.70
65582;DHT22;52231;40.090;18.348;2023-05-20T13:26:21;25.20;40.20
65582;DHT22;52231;40.090;18.348;2023-05-20T13:28:49;25.20;40.10
65582;DHT22;52231;40.090;18.348;2023-05-20T13:31:18;25.20;40.60
65582;DHT22;52231;40.090;18.348;2023-05-20T13:33:46;25.10;41.40
65582;DHT22;52231;40.090;18.348;2023-05-20T13:36:17;25.00;41.90
65582;DHT22;52231;40.090;18.348;2023-05-20T13:38:48;24.90;42.30
65582;DHT22;52231;40.090;18.348;2023-05-20T13:41:17;24.80;43.20
65582;DHT22;52231;40.090;18.348;2023-05-20T13:43:45;24.60;43.30
65582;DHT22;52231;40.090;18.348;2023-05-20T13:46:15;24.30;43.50
65582;DHT22;52231;40.090;18.348;2023-05-20T13:48:44;24.20;43.60
65582;DHT22;52231;40.090;18.348;2023-05-20T13:51:12;24.10;44.00
65582;DHT22;52231;40.090;18.348;2023-05-20T13:53:40;24.10;44.60
65582;DHT22;52231;40.090;18.348;2023-05-20T13:56:09;24.00;45.20
65582;DHT22;52231;40.090;18.348;2023-05-20T13:58:39;24.10;45.40
65582;DHT22;52231;40.090;18.348;2023-05-20T14:01:07;24.20;45.00
65582;DHT22;52231;40.090;18.348;2023-05-20T14:03:35;24.30;45.00
65582;DHT22;52231;40.090;18.348;2023-05-20T14:06:05;24.40;44.20
65582;DHT22;52231;40.090;18.348;2023-05-20T14:08:34;24.50;44.30
65582;DHT22;52231;40.090;18.348;2023-05-20T14:11:02;24.60;45.00
65582;DHT22;52231;40.090;18.348;2023-05-20T14:13:32;24.80;44.00
65582;DHT22;52231;40.090;18.348;2023-05-20T14:16:00;24.60;44.30
65582;DHT22;52231;40.090;18.348;2023-05-20T14:18:29;24.60;44.00
65582;DHT22;52231;40.090;18.348;2023-05-20T14:20:57;24.60;44.30
65582;DHT22;52231;40.090;18.348;2023-05-20T14:23:26;24.60;43.90
65582;DHT22;52231;40.090;18.348;2023-05-20T14:25:54;24.50;44.20
65582;DHT22;52231;40.090;18.348;2023-05-20T14:28:23;24.40;44.80
65582;DHT22;52231;40.090;18.348;2023-05-20T14:30:51;24.30;44.70
65582;DHT22;52231;40.090;18.348;2023-05-20T14:33:21;24.30;45.20
65582;DHT22;52231;40.090;18.348;2023-05-20T14:35:50;24.10;45.80
65582;DHT22;52231;40.090;18.348;2023-05-20T14:38:22;24.00;45.80
65582;DHT22;52231;40.090;18.348;2023-05-20T14:40:51;23.80;46.10
65582;DHT22;52231;40.090;18.348;2023-05-20T14:43:19;23.70;46.30
65582;DHT22;52231;40.090;18.348;2023-05-20T14:45:48;23.70;47.40
65582;DHT22;52231;40.090;18.348;2023-05-20T14:48:17;23.40;47.20
65582;DHT22;52231;40.090;18.348;2023-05-20T14:50:46;23.30;48.10
65582;DHT22;52231;40.090;18.348;2023-05-20T14:53:16;23.30;48.50
65582;DHT22;52231;40.090;18.348;2023-05-20T14:55:47;23.30;48.80
65582;DHT22;52231;40.090;18.348;2023-05-20T14:58:15;23.20;49.70
65582;DHT22;52231;40.090;18.348;2023-05-20T15:00:43;23.10;49.60
65582;DHT22;52231;40.090;18.348;2023-05-20T15:03:12;23.10;49.80
65582;DHT22;52231;40.090;18.348;2023-05-20T15:05:41;23.00;50.60
65582;DHT22;52231;40.090;18.348;2023-05-20T15:08:09;23.00;50.80
65582;DHT22;52231;40.090;18.348;2023-05-20T15:10:38;22.90;50.80
65582;DHT22;52231;40.090;18.348;2023-05-20T15:13:06;22.90;51.30
65582;DHT22;52231;40.090;18.348;2023-05-20T15:15:34;22.80;51.60
65582;DHT22;52231;40.090;18.348;2023-05-20T15:18:03;22.70;51.90
65582;DHT22;52231;40.090;18.348;2023-05-20T15:20:31;22.70;51.60
65582;DHT22;52231;40.090;18.348;2023-05-20T15:22:59;22.70;51.80
65582;DHT22;52231;40.090;18.348;2023-05-20T15:25:28;22.60;52.00
65582;DHT22;52231;40.090;18.348;2023-05-20T15:27:57;22.60;52.80
65582;DHT22;52231;40.090;18.348;2023-05-20T15:30:25;22.70;53.10
65582;DHT22;52231;40.090;18.348;2023-05-20T15:32:53;22.70;53.60
65582;DHT22;52231;40.090;18.348;2023-05-20T15:35:21;22.70;54.50
65582;DHT22;52231;40.090;18.348;2023-05-20T15:37:50;22.50;54.30
65582;DHT22;52231;40.090;18.348;2023-05-20T15:40:18;22.40;54.40